createdAt,value
2023-07-25T00:00:00.000Z,997.6
2023-07-25T00:01:16.608Z,997.5
2023-07-25T00:02:31.832Z,997.4
2023-07-25T00:03:48.028Z,997.5
2023-07-25T00:04:46.222Z,997.5
2023-07-25T00:06:20.000Z,997.4
2023-07-25T00:07:36.000Z,997.5
2023-07-25T00:08:34.809Z,997.6
2023-07-25T00:10:08.000Z,997.5
2023-07-25T00:11:24.000Z,997.6
2023-07-25T00:12:40.000Z,997.6
2023-07-25T00:13:56.000Z,997.6
2023-07-25T00:15:12.000Z,997.5
2023-07-25T00:16:28.990Z,997.6
2023-07-25T00:17:45.000Z,997.5
2023-07-25T00:19:01.000Z,997.4
2023-07-25T00:20:17.000Z,997.5
2023-07-25T00:21:33.000Z,997.6
2023-07-25T00:22:49.000Z,997.6
2023-07-25T00:24:06.171Z,997.6
2023-07-25T00:25:22.366Z,997.6
2023-07-25T00:26:37.567Z,997.6
2023-07-25T00:27:53.000Z,997.6
2023-07-25T00:29:09.000Z,997.6
2023-07-25T00:30:26.159Z,997.6
2023-07-25T00:31:24.355Z,997.6
2023-07-25T00:32:58.550Z,997.6
2023-07-25T00:34:14.000Z,997.6
2023-07-25T00:35:30.000Z,997.7
2023-07-25T00:36:47.000Z,997.6
2023-07-25T00:37:45.332Z,997.6
2023-07-25T00:39:01.527Z,997.7
2023-07-25T00:40:17.722Z,997.6
2023-07-25T00:41:51.000Z,997.7
2023-07-25T00:42:50.113Z,997.6
2023-07-25T00:44:24.309Z,997.6
2023-07-25T00:45:40.000Z,997.6
2023-07-25T00:46:38.699Z,997.6
2023-07-25T00:48:12.894Z,997.6
2023-07-25T00:49:29.000Z,997.6
2023-07-25T00:50:45.282Z,997.7
2023-07-25T00:52:01.000Z,997.7
2023-07-25T00:52:59.674Z,997.7
2023-07-25T00:54:33.000Z,997.5
2023-07-25T00:55:32.064Z,997.6
2023-07-25T00:57:06.259Z,997.6
2023-07-25T00:58:22.000Z,997.7
2023-07-25T00:59:38.000Z,997.7
2023-07-25T01:00:54.837Z,997.7
2023-07-25T01:02:11.000Z,997.7
2023-07-25T01:03:27.240Z,997.7
2023-07-25T01:04:42.467Z,997.7
2023-07-25T01:05:40.661Z,997.7
2023-07-25T01:07:14.000Z,997.8
2023-07-25T01:08:50.000Z,997.8
2023-07-25T01:09:29.248Z,997.8
2023-07-25T01:11:02.000Z,997.9
2023-07-25T01:12:18.655Z,997.8
2023-07-25T01:13:34.851Z,997.8
2023-07-25T01:14:51.000Z,997.8
2023-07-25T01:16:07.240Z,997.8
2023-07-25T01:17:05.435Z,997.8
2023-07-25T01:18:39.000Z,997.9
2023-07-25T01:19:55.000Z,997.9
2023-07-25T01:21:31.000Z,997.8
2023-07-25T01:22:28.000Z,997.8
2023-07-25T01:23:44.410Z,997.9
2023-07-25T01:25:00.606Z,997.9
2023-07-25T01:26:16.000Z,997.9
2023-07-25T01:27:32.987Z,997.9
2023-07-25T01:28:49.188Z,997.9
2023-07-25T01:30:04.000Z,998
2023-07-25T01:31:02.608Z,998
2023-07-25T01:32:36.000Z,998
2023-07-25T01:33:34.999Z,997.9
2023-07-25T01:35:09.194Z,998
2023-07-25T01:36:25.389Z,997.9
2023-07-25T01:37:41.000Z,998
2023-07-25T01:38:57.000Z,997.9
2023-07-25T01:40:13.000Z,998
2023-07-25T01:41:30.169Z,998
2023-07-25T01:42:45.000Z,998
2023-07-25T01:44:01.000Z,998
2023-07-25T01:45:17.000Z,998
2023-07-25T01:46:33.000Z,998.1
2023-07-25T01:47:50.000Z,998.1
2023-07-25T01:49:06.356Z,998.1
2023-07-25T01:50:22.000Z,998.2
2023-07-25T01:51:38.000Z,998.1
2023-07-25T01:52:54.942Z,998.1
2023-07-25T01:54:11.145Z,998.1
2023-07-25T01:55:26.000Z,998.1
2023-07-25T01:56:42.000Z,998.1
2023-07-25T01:57:58.748Z,998
2023-07-25T01:59:13.000Z,998.2
2023-07-25T02:00:30.000Z,998.1
2023-07-25T02:01:46.351Z,998.2
2023-07-25T02:03:02.547Z,998.1
2023-07-25T02:04:18.000Z,998.1
2023-07-25T02:05:34.000Z,998.2
2023-07-25T02:06:51.000Z,998
2023-07-25T02:08:07.328Z,998.1
2023-07-25T02:09:23.000Z,998.1
2023-07-25T02:10:39.718Z,998.2
2023-07-25T02:11:55.000Z,998.1
2023-07-25T02:13:12.108Z,998.1
2023-07-25T02:14:28.302Z,998.1
2023-07-25T02:15:44.498Z,998.1
2023-07-25T02:17:00.000Z,998.1
2023-07-25T02:18:16.889Z,998.1
2023-07-25T02:19:33.000Z,998
2023-07-25T02:20:49.000Z,998.1
2023-07-25T02:22:05.000Z,998.2
2023-07-25T02:23:21.669Z,998.2
2023-07-25T02:24:37.000Z,998.3
2023-07-25T02:25:54.058Z,998.3
2023-07-25T02:27:10.254Z,998.2
2023-07-25T02:28:26.000Z,998.3
2023-07-25T02:29:42.643Z,998.3
2023-07-25T02:30:58.840Z,998.3
2023-07-25T02:32:15.032Z,998.3
2023-07-25T02:33:31.229Z,998.2
2023-07-25T02:34:47.424Z,998.3
2023-07-25T02:36:03.619Z,998.3
2023-07-25T02:37:19.827Z,998.3
2023-07-25T02:38:36.010Z,998.4
2023-07-25T02:39:52.205Z,998.4
2023-07-25T02:41:08.400Z,998.4
2023-07-25T02:42:24.000Z,998.4
2023-07-25T02:43:40.000Z,998.4
2023-07-25T02:44:56.985Z,998.4
2023-07-25T02:46:13.000Z,998.4
2023-07-25T02:47:29.000Z,998.4
2023-07-25T02:48:45.000Z,998.5
2023-07-25T02:50:01.000Z,998.5
2023-07-25T02:51:18.247Z,998.5
2023-07-25T02:52:33.000Z,998.5
2023-07-25T02:53:49.000Z,998.5
2023-07-25T02:55:05.000Z,998.6
2023-07-25T02:56:22.102Z,998.5
2023-07-25T02:57:38.000Z,998.5
2023-07-25T02:58:54.492Z,998.5
2023-07-25T03:00:10.697Z,998.6
2023-07-25T03:01:26.000Z,998.5
2023-07-25T03:02:43.000Z,998.6
2023-07-25T03:03:59.000Z,998.6
2023-07-25T03:05:15.476Z,998.7
2023-07-25T03:06:31.784Z,998.6
2023-07-25T03:07:47.979Z,998.7
2023-07-25T03:09:04.000Z,998.8
2023-07-25T03:10:20.000Z,998.7
2023-07-25T03:11:36.000Z,998.7
2023-07-25T03:12:52.763Z,998.7
2023-07-25T03:14:08.955Z,998.7
2023-07-25T03:15:25.150Z,998.8
2023-07-25T03:16:41.000Z,999
2023-07-25T03:17:57.550Z,998.9
2023-07-25T03:19:12.762Z,998.8
2023-07-25T03:20:28.000Z,998.9
2023-07-25T03:21:45.153Z,998.8
2023-07-25T03:23:01.000Z,998.8
2023-07-25T03:24:17.000Z,998.7
2023-07-25T03:25:33.737Z,998.7
2023-07-25T03:26:49.000Z,998.7
2023-07-25T03:28:06.000Z,998.7
2023-07-25T03:29:22.000Z,998.7
2023-07-25T03:30:38.000Z,998.7
2023-07-25T03:31:54.000Z,998.7
2023-07-25T03:33:10.000Z,998.7
2023-07-25T03:34:27.103Z,998.7
2023-07-25T03:35:43.000Z,998.8
2023-07-25T03:36:59.000Z,998.7
2023-07-25T03:38:15.000Z,998.7
2023-07-25T03:39:31.000Z,998.7
2023-07-25T03:40:48.000Z,998.7
2023-07-25T03:42:04.000Z,998.7
2023-07-25T03:43:20.000Z,998.7
2023-07-25T03:44:36.000Z,998.6
2023-07-25T03:45:52.000Z,998.6
2023-07-25T03:47:09.000Z,998.6
2023-07-25T03:48:25.000Z,998.6
2023-07-25T03:49:41.000Z,998.7
2023-07-25T03:50:57.684Z,998.7
2023-07-25T03:52:13.949Z,998.7
2023-07-25T03:53:30.000Z,998.7
2023-07-25T03:54:46.000Z,998.7
2023-07-25T03:56:02.000Z,998.8
2023-07-25T03:57:19.005Z,998.7
2023-07-25T03:58:34.263Z,998.7
2023-07-25T03:59:49.468Z,998.8
2023-07-25T04:01:05.000Z,998.8
2023-07-25T04:02:21.854Z,998.7
2023-07-25T04:03:38.047Z,998.8
2023-07-25T04:04:54.000Z,998.8
2023-07-25T04:06:10.000Z,998.9
2023-07-25T04:07:26.000Z,998.9
2023-07-25T04:08:42.000Z,998.7
2023-07-25T04:09:59.000Z,998.8
2023-07-25T04:11:15.000Z,998.8
2023-07-25T04:12:31.000Z,998.8
2023-07-25T04:13:47.000Z,998.9
2023-07-25T04:15:03.000Z,998.7
2023-07-25T04:16:19.000Z,998.7
2023-07-25T04:17:36.000Z,998.7
2023-07-25T04:18:52.367Z,998.9
2023-07-25T04:20:07.000Z,998.6
2023-07-25T04:21:23.782Z,998.9
2023-07-25T04:22:39.000Z,998.7
2023-07-25T04:23:56.162Z,998.8
2023-07-25T04:25:12.000Z,998.7
2023-07-25T04:26:28.000Z,998.7
2023-07-25T04:27:44.000Z,998.8
2023-07-25T04:29:00.000Z,998.8
2023-07-25T04:30:17.000Z,998.8
2023-07-25T04:31:33.000Z,998.8
2023-07-25T04:32:49.000Z,998.8
2023-07-25T04:34:05.000Z,998.9
2023-07-25T04:35:21.000Z,998.9
2023-07-25T04:36:38.000Z,998.9
2023-07-25T04:37:54.000Z,998.8
2023-07-25T04:39:10.000Z,998.9
2023-07-25T04:40:26.000Z,998.9
2023-07-25T04:41:42.000Z,998.9
2023-07-25T04:42:59.000Z,998.9
2023-07-25T04:44:15.000Z,998.9
2023-07-25T04:45:31.434Z,998.9
2023-07-25T04:46:47.000Z,998.8
2023-07-25T04:48:03.000Z,998.8
2023-07-25T04:49:20.000Z,998.9
2023-07-25T04:50:36.000Z,998.9
2023-07-25T04:51:52.000Z,998.8
2023-07-25T04:53:08.000Z,998.9
2023-07-25T04:54:24.782Z,998.9
2023-07-25T04:55:40.977Z,998.9
2023-07-25T04:56:57.000Z,998.9
2023-07-25T04:58:13.363Z,998.9
2023-07-25T04:59:11.556Z,999
2023-07-25T05:00:45.000Z,998.9
2023-07-25T05:01:43.942Z,998.8
2023-07-25T05:03:18.000Z,999
2023-07-25T05:04:34.328Z,998.9
2023-07-25T05:05:50.000Z,998.8
2023-07-25T05:07:06.000Z,998.9
2023-07-25T05:08:23.022Z,998.7
2023-07-25T05:09:39.272Z,998.8
2023-07-25T05:10:55.000Z,998.7
2023-07-25T05:12:11.000Z,998.8
2023-07-25T05:13:28.000Z,998.8
2023-07-25T05:14:44.000Z,998.7
2023-07-25T05:16:00.519Z,998.8
2023-07-25T05:17:16.000Z,998.7
2023-07-25T05:18:32.000Z,998.6
2023-07-25T05:19:48.000Z,998.7
2023-07-25T05:21:04.000Z,998.7
2023-07-25T05:22:20.615Z,998.7
2023-07-25T05:23:36.808Z,998.6
2023-07-25T05:24:53.001Z,998.7
2023-07-25T05:26:09.000Z,998.6
2023-07-25T05:27:25.000Z,998.6
2023-07-25T05:28:41.000Z,998.6
2023-07-25T05:29:57.000Z,998.6
2023-07-25T05:30:55.966Z,998.6
2023-07-25T05:32:30.159Z,998.5
2023-07-25T05:33:46.000Z,998.5
2023-07-25T05:35:02.000Z,998.5
2023-07-25T05:36:18.748Z,998.5
2023-07-25T05:37:34.000Z,998.5
2023-07-25T05:38:51.000Z,998.6
2023-07-25T05:40:07.000Z,998.6
2023-07-25T05:41:23.517Z,998.7
2023-07-25T05:42:38.736Z,998.6
2023-07-25T05:43:36.917Z,998.7
2023-07-25T05:45:11.000Z,998.7
2023-07-25T05:46:27.000Z,998.7
2023-07-25T05:47:43.000Z,998.8
2023-07-25T05:48:59.688Z,998.8
2023-07-25T05:50:15.882Z,998.8
2023-07-25T05:51:32.078Z,998.8
2023-07-25T05:52:48.268Z,999
2023-07-25T05:54:04.463Z,999
2023-07-25T05:55:20.000Z,999.1
2023-07-25T05:56:18.847Z,999.1
2023-07-25T05:57:53.000Z,999.1
2023-07-25T05:59:09.000Z,999.2
2023-07-25T06:00:25.000Z,999.4
2023-07-25T06:01:41.000Z,999.4
2023-07-25T06:02:57.000Z,999.5
2023-07-25T06:04:14.000Z,999.6
2023-07-25T06:05:30.000Z,999.7
2023-07-25T06:06:28.392Z,999.7
2023-07-25T06:08:01.000Z,999.8
2023-07-25T06:09:17.803Z,999.8
2023-07-25T06:10:33.000Z,999.8
2023-07-25T06:11:49.000Z,999.9
2023-07-25T06:13:05.000Z,999.8
2023-07-25T06:14:21.000Z,999.8
2023-07-25T06:15:37.000Z,999.8
2023-07-25T06:16:53.000Z,999.8
2023-07-25T06:18:10.000Z,999.8
2023-07-25T06:19:26.377Z,999.8
2023-07-25T06:20:42.557Z,999.7
2023-07-25T06:21:58.761Z,999.7
2023-07-25T06:23:14.000Z,999.7
2023-07-25T06:24:31.000Z,999.7
2023-07-25T06:25:47.000Z,999.8
2023-07-25T06:27:03.000Z,999.8
2023-07-25T06:28:19.716Z,999.8
2023-07-25T06:29:35.912Z,999.7
2023-07-25T06:30:52.000Z,999.8
2023-07-25T06:32:08.298Z,999.8
2023-07-25T06:33:23.000Z,999.8
2023-07-25T06:34:21.708Z,999.7
2023-07-25T06:35:55.000Z,999.7
2023-07-25T06:37:12.000Z,999.7
2023-07-25T06:38:28.000Z,999.7
2023-07-25T06:39:44.000Z,999.6
2023-07-25T06:41:00.672Z,999.6
2023-07-25T06:42:16.000Z,999.6
2023-07-25T06:43:33.064Z,999.8
2023-07-25T06:44:49.253Z,999.8
2023-07-25T06:46:04.000Z,999.8
2023-07-25T06:47:20.654Z,999.7
2023-07-25T06:48:36.000Z,999.7
2023-07-25T06:49:53.000Z,999.8
2023-07-25T06:51:09.230Z,999.6
2023-07-25T06:52:25.426Z,999.6
2023-07-25T06:53:41.000Z,999.7
2023-07-25T06:54:57.815Z,999.6
2023-07-25T06:56:14.000Z,999.6
2023-07-25T06:57:30.000Z,999.6
2023-07-25T06:58:46.390Z,999.7
2023-07-25T07:00:02.000Z,999.6
2023-07-25T07:01:18.000Z,999.6
2023-07-25T07:02:34.000Z,999.6
2023-07-25T07:03:51.000Z,999.5
2023-07-25T07:05:07.000Z,999.6
2023-07-25T07:06:23.562Z,999.6
2023-07-25T07:07:39.000Z,999.6
2023-07-25T07:08:55.000Z,999.6
2023-07-25T07:10:12.138Z,999.6
2023-07-25T07:11:28.000Z,999.7
2023-07-25T07:12:26.516Z,999.6
2023-07-25T07:14:00.716Z,999.5
2023-07-25T07:15:16.000Z,999.4
2023-07-25T07:16:33.000Z,999.5
2023-07-25T07:17:49.000Z,999.4
2023-07-25T07:19:05.000Z,999.5
2023-07-25T07:20:21.679Z,999.5
2023-07-25T07:21:37.867Z,999.5
2023-07-25T07:22:54.000Z,999.5
2023-07-25T07:24:10.000Z,999.5
2023-07-25T07:25:26.446Z,999.5
2023-07-25T07:26:42.000Z,999.4
2023-07-25T07:27:58.835Z,999.4
2023-07-25T07:29:15.000Z,999.4
2023-07-25T07:30:31.000Z,999.4
2023-07-25T07:31:47.000Z,999.4
2023-07-25T07:33:03.000Z,999.4
2023-07-25T07:34:19.924Z,999.4
2023-07-25T07:35:35.000Z,999.3
2023-07-25T07:36:51.000Z,999.4
2023-07-25T07:37:49.570Z,999.3
2023-07-25T07:39:22.000Z,999.3
2023-07-25T07:40:38.000Z,999.3
2023-07-25T07:41:55.000Z,999.4
2023-07-25T07:43:11.000Z,999.3
2023-07-25T07:44:27.000Z,999.3
2023-07-25T07:45:43.746Z,999.4
2023-07-25T07:46:59.000Z,999.4
2023-07-25T07:48:16.000Z,999.4
2023-07-25T07:49:32.341Z,999.3
2023-07-25T07:50:48.000Z,999.4
2023-07-25T07:52:04.000Z,999.3
2023-07-25T07:53:20.000Z,999.4
2023-07-25T07:54:37.000Z,999.4
2023-07-25T07:55:53.000Z,999.4
2023-07-25T07:57:09.503Z,999.4
2023-07-25T07:58:24.708Z,999.4
2023-07-25T07:59:40.000Z,999.3
2023-07-25T08:00:57.000Z,999.3
2023-07-25T08:02:13.276Z,999.3
2023-07-25T08:03:29.000Z,999.2
2023-07-25T08:04:45.671Z,999.3
2023-07-25T08:06:00.882Z,999.2
2023-07-25T08:07:17.000Z,999.2
2023-07-25T08:08:33.000Z,999.3
2023-07-25T08:09:49.000Z,999.1
2023-07-25T08:11:05.000Z,999.2
2023-07-25T08:12:21.865Z,999.2
2023-07-25T08:13:37.000Z,999.3
2023-07-25T08:14:53.000Z,999.2
2023-07-25T08:16:09.460Z,999.2
2023-07-25T08:17:25.000Z,999.2
2023-07-25T08:18:41.000Z,999.2
2023-07-25T08:19:58.026Z,999.2
2023-07-25T08:21:14.000Z,999.1
2023-07-25T08:22:30.412Z,999.2
2023-07-25T08:23:46.614Z,999.1
2023-07-25T08:25:02.000Z,999.2
2023-07-25T08:26:18.990Z,999.2
2023-07-25T08:27:35.185Z,999
2023-07-25T08:28:51.380Z,999
2023-07-25T08:30:07.000Z,999
2023-07-25T08:31:23.000Z,999.1
2023-07-25T08:32:39.000Z,999.1
2023-07-25T08:33:56.000Z,999
2023-07-25T08:35:12.359Z,999.2
2023-07-25T08:36:28.000Z,999.3
2023-07-25T08:37:44.000Z,999.2
2023-07-25T08:39:00.927Z,999.4
2023-07-25T08:40:16.147Z,999.2
2023-07-25T08:41:32.356Z,999.3
2023-07-25T08:42:47.000Z,999.4
2023-07-25T08:44:03.000Z,999.4
2023-07-25T08:45:19.000Z,999.4
2023-07-25T08:46:36.141Z,999.5
2023-07-25T08:47:52.000Z,999.4
2023-07-25T08:49:08.000Z,999.4
2023-07-25T08:50:24.000Z,999.4
2023-07-25T08:51:40.000Z,999.4
2023-07-25T08:52:57.100Z,999.4
2023-07-25T08:54:13.000Z,999.4
2023-07-25T08:55:29.000Z,999.4
2023-07-25T08:56:45.000Z,999.3
2023-07-25T08:58:01.000Z,999.3
2023-07-25T08:59:18.000Z,999.3
2023-07-25T09:00:34.000Z,999.3
2023-07-25T09:01:50.463Z,999.2
2023-07-25T09:03:06.000Z,999.3
2023-07-25T09:04:22.844Z,999.3
2023-07-25T09:05:39.000Z,999.2
2023-07-25T09:06:55.234Z,999.2
2023-07-25T09:08:11.000Z,999.3
2023-07-25T09:09:27.000Z,999.3
2023-07-25T09:10:43.000Z,999.2
2023-07-25T09:12:00.005Z,999.2
2023-07-25T09:13:16.198Z,999.2
2023-07-25T09:14:32.390Z,999.2
2023-07-25T09:15:48.000Z,999.3
2023-07-25T09:17:04.000Z,999.3
2023-07-25T09:18:20.000Z,999.3
2023-07-25T09:19:37.000Z,999.4
2023-07-25T09:20:53.373Z,999.4
2023-07-25T09:22:09.000Z,999.4
2023-07-25T09:23:25.000Z,999.5
2023-07-25T09:24:41.940Z,999.5
2023-07-25T09:25:58.000Z,999.5
2023-07-25T09:27:14.000Z,999.4
2023-07-25T09:28:30.000Z,999.5
2023-07-25T09:29:46.000Z,999.5
2023-07-25T09:31:03.000Z,999.4
2023-07-25T09:32:19.274Z,999.5
2023-07-25T09:33:35.000Z,999.6
2023-07-25T09:34:51.000Z,999.6
2023-07-25T09:36:08.000Z,999.5
2023-07-25T09:37:24.273Z,999.4
2023-07-25T09:38:40.000Z,999.5
2023-07-25T09:39:56.000Z,999.6
2023-07-25T09:41:13.000Z,999.6
2023-07-25T09:42:29.000Z,999.6
2023-07-25T09:43:45.528Z,999.6
2023-07-25T09:45:00.000Z,999.5
2023-07-25T09:46:16.980Z,999.7
2023-07-25T09:47:33.180Z,999.7
2023-07-25T09:48:49.000Z,999.7
2023-07-25T09:50:05.561Z,999.6
2023-07-25T09:51:21.000Z,999.6
2023-07-25T09:52:37.000Z,999.5
2023-07-25T09:53:54.000Z,999.5
2023-07-25T09:55:10.000Z,999.5
2023-07-25T09:56:26.000Z,999.4
2023-07-25T09:57:42.000Z,999.5
2023-07-25T09:58:58.000Z,999.4
2023-07-25T10:00:15.000Z,999.4
2023-07-25T10:01:31.000Z,999.4
2023-07-25T10:02:29.491Z,999.4
2023-07-25T10:04:03.683Z,999.4
2023-07-25T10:05:19.000Z,999.6
2023-07-25T10:06:36.000Z,999.5
2023-07-25T10:07:52.000Z,999.5
2023-07-25T10:09:08.000Z,999.5
2023-07-25T10:10:24.000Z,999.5
2023-07-25T10:11:40.000Z,999.4
2023-07-25T10:12:57.032Z,999.4
2023-07-25T10:14:12.000Z,999.5
2023-07-25T10:15:10.458Z,999.5
2023-07-25T10:16:44.000Z,999.4
2023-07-25T10:18:00.844Z,999.5
2023-07-25T10:19:17.000Z,999.6
2023-07-25T10:20:33.000Z,999.6
2023-07-25T10:21:49.000Z,999.5
2023-07-25T10:23:05.630Z,999.6
2023-07-25T10:24:21.000Z,999.6
2023-07-25T10:25:38.126Z,999.5
2023-07-25T10:26:54.000Z,999.5
2023-07-25T10:27:52.508Z,999.6
2023-07-25T10:29:26.701Z,999.6
2023-07-25T10:30:42.894Z,999.5
2023-07-25T10:31:59.000Z,999.5
2023-07-25T10:33:15.000Z,999.5
2023-07-25T10:34:31.000Z,999.5
2023-07-25T10:35:47.666Z,999.4
2023-07-25T10:37:03.000Z,999.5
2023-07-25T10:38:20.064Z,999.6
2023-07-25T10:39:35.000Z,999.5
2023-07-25T10:40:51.461Z,999.5
2023-07-25T10:42:07.000Z,999.4
2023-07-25T10:43:23.000Z,999.5
2023-07-25T10:44:40.042Z,999.4
2023-07-25T10:45:56.000Z,999.5
2023-07-25T10:47:12.425Z,999.5
2023-07-25T10:48:28.618Z,999.5
2023-07-25T10:49:44.000Z,999.5
2023-07-25T10:51:01.000Z,999.4
2023-07-25T10:52:16.000Z,999.4
2023-07-25T10:53:32.000Z,999.4
2023-07-25T10:54:48.000Z,999.4
2023-07-25T10:56:04.000Z,999.4
2023-07-25T10:57:20.000Z,999.3
2023-07-25T10:58:37.000Z,999.4
2023-07-25T10:59:53.000Z,999.4
2023-07-25T11:01:09.575Z,999.4
2023-07-25T11:02:25.763Z,999.5
2023-07-25T11:03:41.000Z,999.4
2023-07-25T11:04:58.000Z,999.4
2023-07-25T11:06:14.000Z,999.4
2023-07-25T11:07:30.547Z,999.4
2023-07-25T11:08:45.000Z,999.4
2023-07-25T11:10:01.000Z,999.4
2023-07-25T11:11:18.146Z,999.5
2023-07-25T11:12:34.000Z,999.5
2023-07-25T11:13:50.537Z,999.5
2023-07-25T11:15:06.000Z,999.5
2023-07-25T11:16:22.000Z,999.5
2023-07-25T11:17:39.000Z,999.5
2023-07-25T11:18:55.314Z,999.4
2023-07-25T11:20:10.000Z,999.4
2023-07-25T11:21:26.000Z,999.4
2023-07-25T11:22:42.000Z,999.4
2023-07-25T11:23:59.000Z,999.4
2023-07-25T11:25:15.000Z,999.4
2023-07-25T11:26:31.000Z,999.3
2023-07-25T11:27:47.000Z,999.3
2023-07-25T11:29:03.000Z,999.3
2023-07-25T11:30:20.000Z,999.3
2023-07-25T11:31:36.241Z,999.3
2023-07-25T11:32:52.000Z,999.3
2023-07-25T11:34:08.000Z,999.1
2023-07-25T11:35:24.000Z,999.1
2023-07-25T11:36:41.000Z,999.1
2023-07-25T11:37:57.000Z,999.2
2023-07-25T11:39:13.000Z,999.1
2023-07-25T11:40:29.000Z,999.1
2023-07-25T11:41:27.787Z,999
2023-07-25T11:43:01.000Z,999.1
2023-07-25T11:44:18.178Z,999
2023-07-25T11:45:33.000Z,999
2023-07-25T11:46:49.000Z,999
2023-07-25T11:48:05.000Z,999
2023-07-25T11:49:21.000Z,999
2023-07-25T11:50:38.000Z,999
2023-07-25T11:51:54.359Z,999
2023-07-25T11:53:10.553Z,998.9
2023-07-25T11:54:08.746Z,998.9
2023-07-25T11:55:42.000Z,998.9
2023-07-25T11:56:59.134Z,998.9
2023-07-25T11:58:14.000Z,999
2023-07-25T11:59:30.536Z,999
2023-07-25T12:00:46.000Z,999
2023-07-25T12:02:02.000Z,999
2023-07-25T12:03:19.118Z,998.9
2023-07-25T12:04:35.000Z,999
2023-07-25T12:05:51.000Z,999
2023-07-25T12:07:07.000Z,999
2023-07-25T12:08:23.000Z,999
2023-07-25T12:09:22.084Z,998.9
2023-07-25T12:10:56.278Z,998.9
2023-07-25T12:12:12.000Z,998.9
2023-07-25T12:13:28.000Z,998.9
2023-07-25T12:14:44.000Z,998.8
2023-07-25T12:16:01.047Z,998.9
2023-07-25T12:17:17.365Z,998.8
2023-07-25T12:18:33.000Z,998.7
2023-07-25T12:19:49.756Z,998.7
2023-07-25T12:21:05.000Z,998.8
2023-07-25T12:22:22.137Z,998.8
2023-07-25T12:23:38.331Z,998.7
2023-07-25T12:24:54.000Z,998.9
2023-07-25T12:26:10.000Z,998.7
2023-07-25T12:27:26.000Z,998.8
2023-07-25T12:28:43.000Z,998.8
2023-07-25T12:29:59.000Z,998.9
2023-07-25T12:31:15.000Z,998.7
2023-07-25T12:32:13.686Z,998.7
2023-07-25T12:33:48.000Z,998.9
2023-07-25T12:35:04.000Z,998.9
2023-07-25T12:36:20.387Z,998.8
2023-07-25T12:37:36.000Z,999
2023-07-25T12:38:52.000Z,998.9
2023-07-25T12:40:08.967Z,999
2023-07-25T12:41:25.000Z,998.9
2023-07-25T12:42:41.000Z,998.9
2023-07-25T12:43:57.000Z,999.1
2023-07-25T12:45:13.741Z,998.9
2023-07-25T12:46:29.000Z,998.9
2023-07-25T12:47:46.000Z,998.9
2023-07-25T12:49:02.000Z,998.9
2023-07-25T12:50:18.000Z,998.9
2023-07-25T12:51:34.000Z,998.9
2023-07-25T12:52:50.000Z,998.9
2023-07-25T12:54:07.102Z,998.8
2023-07-25T12:55:23.000Z,998.9
2023-07-25T12:56:39.000Z,998.9
2023-07-25T12:57:55.806Z,998.9
2023-07-25T12:59:11.986Z,998.8
2023-07-25T13:00:10.179Z,998.9
2023-07-25T13:01:44.000Z,998.9
2023-07-25T13:03:00.565Z,999
2023-07-25T13:04:16.759Z,998.9
2023-07-25T13:05:32.000Z,998.8
2023-07-25T13:06:49.146Z,998.9
2023-07-25T13:08:05.000Z,998.9
2023-07-25T13:09:21.000Z,998.8
2023-07-25T13:10:37.000Z,998.9
2023-07-25T13:11:53.000Z,998.9
2023-07-25T13:13:10.111Z,998.8
2023-07-25T13:14:26.000Z,998.8
2023-07-25T13:15:42.000Z,998.8
2023-07-25T13:16:58.000Z,998.9
2023-07-25T13:18:14.000Z,998.8
2023-07-25T13:19:31.000Z,999
2023-07-25T13:20:47.000Z,999
2023-07-25T13:22:03.000Z,999
2023-07-25T13:23:19.669Z,999.1
2023-07-25T13:24:35.998Z,998.9
2023-07-25T13:25:52.000Z,998.9
2023-07-25T13:27:08.000Z,998.9
2023-07-25T13:28:24.000Z,999
2023-07-25T13:29:40.764Z,998.9
2023-07-25T13:30:56.000Z,999
2023-07-25T13:32:13.153Z,998.9
2023-07-25T13:33:29.364Z,998.9
2023-07-25T13:34:45.543Z,998.8
2023-07-25T13:36:01.742Z,998.8
2023-07-25T13:37:17.933Z,998.8
2023-07-25T13:38:34.000Z,998.7
2023-07-25T13:39:50.000Z,998.8
2023-07-25T13:41:06.000Z,998.8
2023-07-25T13:42:22.000Z,998.9
2023-07-25T13:43:38.000Z,998.8
2023-07-25T13:44:55.000Z,998.8
2023-07-25T13:46:11.298Z,998.8
2023-07-25T13:47:27.000Z,998.8
2023-07-25T13:48:43.697Z,998.8
2023-07-25T13:49:58.000Z,998.8
2023-07-25T13:51:15.000Z,998.8
2023-07-25T13:52:31.000Z,998.7
2023-07-25T13:53:47.484Z,998.8
2023-07-25T13:55:03.680Z,998.7
2023-07-25T13:56:19.000Z,998.8
2023-07-25T13:57:36.000Z,998.8
2023-07-25T13:58:52.000Z,998.8
2023-07-25T14:00:08.000Z,998.8
2023-07-25T14:01:24.655Z,998.9
2023-07-25T14:02:40.000Z,998.8
2023-07-25T14:03:57.052Z,998.8
2023-07-25T14:05:13.000Z,998.9
2023-07-25T14:06:29.000Z,998.7
2023-07-25T14:07:45.000Z,998.7
2023-07-25T14:09:01.000Z,998.6
2023-07-25T14:10:18.024Z,998.7
2023-07-25T14:11:34.233Z,998.8
2023-07-25T14:12:50.000Z,998.8
2023-07-25T14:14:06.731Z,998.7
2023-07-25T14:15:22.000Z,998.7
2023-07-25T14:16:39.000Z,998.6
2023-07-25T14:17:55.318Z,998.7
2023-07-25T14:19:11.000Z,998.7
2023-07-25T14:20:27.000Z,998.8
2023-07-25T14:21:43.903Z,998.7
2023-07-25T14:23:00.000Z,998.7
2023-07-25T14:24:16.000Z,998.7
2023-07-25T14:25:32.000Z,998.7
2023-07-25T14:26:48.684Z,998.6
2023-07-25T14:28:04.880Z,998.6
2023-07-25T14:29:21.073Z,998.6
2023-07-25T14:30:36.291Z,998.6
2023-07-25T14:31:52.000Z,998.6
2023-07-25T14:33:08.000Z,998.7
2023-07-25T14:34:24.000Z,998.7
2023-07-25T14:35:41.077Z,998.7
2023-07-25T14:36:57.000Z,998.7
2023-07-25T14:38:13.000Z,998.6
2023-07-25T14:39:29.000Z,998.5
2023-07-25T14:40:45.000Z,998.5
2023-07-25T14:42:02.000Z,998.6
2023-07-25T14:43:18.000Z,998.7
2023-07-25T14:44:34.000Z,998.6
2023-07-25T14:45:50.000Z,998.7
2023-07-25T14:47:06.828Z,998.6
2023-07-25T14:48:23.000Z,998.6
2023-07-25T14:49:39.225Z,998.6
2023-07-25T14:50:55.000Z,998.7
2023-07-25T14:52:11.000Z,998.7
2023-07-25T14:53:27.805Z,998.7
2023-07-25T14:54:26.000Z,998.7
2023-07-25T14:56:00.000Z,998.8
2023-07-25T14:57:16.000Z,998.6
2023-07-25T14:58:32.000Z,998.7
2023-07-25T14:59:48.000Z,998.6
2023-07-25T15:01:04.000Z,998.6
2023-07-25T15:02:21.000Z,998.6
2023-07-25T15:03:37.000Z,998.6
2023-07-25T15:04:35.563Z,998.6
2023-07-25T15:06:08.000Z,998.6
2023-07-25T15:07:24.983Z,998.7
2023-07-25T15:08:41.165Z,998.7
2023-07-25T15:09:57.000Z,998.7
2023-07-25T15:11:13.561Z,998.7
2023-07-25T15:12:29.755Z,998.6
2023-07-25T15:13:45.000Z,998.7
2023-07-25T15:15:02.000Z,998.6
2023-07-25T15:16:18.000Z,998.7
2023-07-25T15:17:34.000Z,998.6
2023-07-25T15:18:50.000Z,998.6
2023-07-25T15:20:06.000Z,998.6
2023-07-25T15:21:23.000Z,998.5
2023-07-25T15:22:39.000Z,998.6
2023-07-25T15:23:55.000Z,998.6
2023-07-25T15:25:11.000Z,998.6
2023-07-25T15:26:27.000Z,998.7
2023-07-25T15:27:44.109Z,998.6
2023-07-25T15:29:00.000Z,998.6
2023-07-25T15:30:16.619Z,998.7
2023-07-25T15:31:32.000Z,998.7
2023-07-25T15:32:49.002Z,998.6
2023-07-25T15:34:05.196Z,998.6
2023-07-25T15:35:21.000Z,998.6
2023-07-25T15:36:37.000Z,998.6
2023-07-25T15:37:53.000Z,998.7
2023-07-25T15:39:09.000Z,998.6
2023-07-25T15:40:26.173Z,998.5
2023-07-25T15:41:42.000Z,998.5
2023-07-25T15:42:40.563Z,998.6
2023-07-25T15:44:14.000Z,998.5
2023-07-25T15:45:12.954Z,998.6
2023-07-25T15:46:47.271Z,998.7
2023-07-25T15:48:03.000Z,998.7
2023-07-25T15:49:19.661Z,998.6
2023-07-25T15:50:35.000Z,998.7
2023-07-25T15:51:52.052Z,998.7
2023-07-25T15:53:08.000Z,998.7
2023-07-25T15:54:24.000Z,998.7
2023-07-25T15:55:40.644Z,998.7
2023-07-25T15:56:56.834Z,998.7
2023-07-25T15:58:13.000Z,998.7
2023-07-25T15:59:29.225Z,998.7
2023-07-25T16:00:45.420Z,998.7
2023-07-25T16:02:01.000Z,998.6
2023-07-25T16:03:17.000Z,998.7
2023-07-25T16:04:34.006Z,998.8
2023-07-25T16:05:50.000Z,998.7
2023-07-25T16:07:06.000Z,998.7
2023-07-25T16:08:04.591Z,998.7
2023-07-25T16:09:38.000Z,998.8
2023-07-25T16:10:36.981Z,998.8
2023-07-25T16:12:11.000Z,998.7
2023-07-25T16:13:27.372Z,998.8
2023-07-25T16:14:43.000Z,998.7
2023-07-25T16:15:59.000Z,998.8
2023-07-25T16:17:15.957Z,998.7
2023-07-25T16:18:32.156Z,998.7
2023-07-25T16:19:48.469Z,998.7
2023-07-25T16:21:04.678Z,998.7
2023-07-25T16:22:20.000Z,998.8
2023-07-25T16:23:37.000Z,998.7